sensor_id;sensor_type;location;lat;lon;timestamp;P1;durP1;ratioP1;P2;durP2;ratioP2
15383;SDS011;7790;53.022;12.968;2022-12-18T00:02:10;4.90;;;4.50;;
15383;SDS011;7790;53.022;12.968;2022-12-18T00:06:11;5.23;;;4.70;;
15383;SDS011;7790;53.022;12.968;2022-12-18T00:10:14;7.00;;;4.20;;
15383;SDS011;7790;53.022;12.968;2022-12-18T00:14:15;5.70;;;4.70;;
15383;SDS011;7790;53.022;12.968;2022-12-18T00:18:16;6.60;;;4.40;;
15383;SDS011;7790;53.022;12.968;2022-12-18T00:22:18;8.00;;;4.47;;
15383;SDS011;7790;53.022;12.968;2022-12-18T00:26:20;6.67;;;4.40;;
15383;SDS011;7790;53.022;12.968;2022-12-18T00:30:25;6.40;;;4.13;;
15383;SDS011;7790;53.022;12.968;2022-12-18T00:34:27;6.20;;;4.10;;
15383;SDS011;7790;53.022;12.968;2022-12-18T00:38:28;6.73;;;4.60;;
15383;SDS011;7790;53.022;12.968;2022-12-18T00:42:29;5.40;;;4.20;;
15383;SDS011;7790;53.022;12.968;2022-12-18T00:46:49;6.57;;;4.40;;
15383;SDS011;7790;53.022;12.968;2022-12-18T00:50:51;6.17;;;4.30;;
15383;SDS011;7790;53.022;12.968;2022-12-18T00:54:52;5.13;;;4.63;;
15383;SDS011;7790;53.022;12.968;2022-12-18T00:58:53;5.20;;;4.30;;
15383;SDS011;7790;53.022;12.968;2022-12-18T01:02:55;6.60;;;3.97;;
15383;SDS011;7790;53.022;12.968;2022-12-18T01:06:56;4.30;;;3.90;;
15383;SDS011;7790;53.022;12.968;2022-12-18T01:10:57;4.50;;;4.10;;
15383;SDS011;7790;53.022;12.968;2022-12-18T01:14:59;6.67;;;4.77;;
15383;SDS011;7790;53.022;12.968;2022-12-18T01:19:00;4.33;;;3.93;;
15383;SDS011;7790;53.022;12.968;2022-12-18T01:23:02;4.30;;;3.90;;
15383;SDS011;7790;53.022;12.968;2022-12-18T01:27:03;4.60;;;3.70;;
15383;SDS011;7790;53.022;12.968;2022-12-18T01:35:18;4.40;;;3.67;;
15383;SDS011;7790;53.022;12.968;2022-12-18T01:39:20;4.40;;;3.43;;
15383;SDS011;7790;53.022;12.968;2022-12-18T01:43:21;4.13;;;3.83;;
15383;SDS011;7790;53.022;12.968;2022-12-18T01:51:24;3.93;;;3.53;;
15383;SDS011;7790;53.022;12.968;2022-12-18T01:55:28;3.60;;;3.30;;
15383;SDS011;7790;53.022;12.968;2022-12-18T01:59:30;4.00;;;3.60;;
15383;SDS011;7790;53.022;12.968;2022-12-18T02:03:32;4.87;;;3.60;;
15383;SDS011;7790;53.022;12.968;2022-12-18T02:15:59;3.67;;;3.37;;
15383;SDS011;7790;53.022;12.968;2022-12-18T02:28:35;4.17;;;3.77;;
15383;SDS011;7790;53.022;12.968;2022-12-18T02:32:42;4.17;;;3.77;;
15383;SDS011;7790;53.022;12.968;2022-12-18T02:36:44;3.87;;;3.57;;
15383;SDS011;7790;53.022;12.968;2022-12-18T02:40:47;4.63;;;4.13;;
15383;SDS011;7790;53.022;12.968;2022-12-18T02:44:51;4.40;;;4.00;;
15383;SDS011;7790;53.022;12.968;2022-12-18T02:49:04;4.33;;;3.97;;
15383;SDS011;7790;53.022;12.968;2022-12-18T02:57:31;4.53;;;4.13;;
15383;SDS011;7790;53.022;12.968;2022-12-18T03:01:43;5.00;;;4.50;;
15383;SDS011;7790;53.022;12.968;2022-12-18T03:05:48;4.90;;;4.50;;
15383;SDS011;7790;53.022;12.968;2022-12-18T03:09:52;4.70;;;4.30;;
15383;SDS011;7790;53.022;12.968;2022-12-18T03:13:55;4.23;;;3.83;;
15383;SDS011;7790;53.022;12.968;2022-12-18T03:18:01;4.60;;;4.20;;
15383;SDS011;7790;53.022;12.968;2022-12-18T03:22:04;4.40;;;4.00;;
15383;SDS011;7790;53.022;12.968;2022-12-18T03:26:18;4.70;;;4.30;;
15383;SDS011;7790;53.022;12.968;2022-12-18T03:30:25;4.60;;;4.20;;
15383;SDS011;7790;53.022;12.968;2022-12-18T03:34:29;5.17;;;4.67;;
15383;SDS011;7790;53.022;12.968;2022-12-18T03:38:34;4.53;;;4.17;;
15383;SDS011;7790;53.022;12.968;2022-12-18T03:42:43;5.10;;;4.70;;
15383;SDS011;7790;53.022;12.968;2022-12-18T03:51:05;3.67;;;3.37;;
15383;SDS011;7790;53.022;12.968;2022-12-18T03:55:10;4.67;;;4.27;;
15383;SDS011;7790;53.022;12.968;2022-12-18T03:59:13;4.20;;;3.80;;
15383;SDS011;7790;53.022;12.968;2022-12-18T04:03:16;3.73;;;3.43;;
15383;SDS011;7790;53.022;12.968;2022-12-18T04:07:21;4.10;;;3.80;;
15383;SDS011;7790;53.022;12.968;2022-12-18T04:11:23;3.93;;;3.57;;
15383;SDS011;7790;53.022;12.968;2022-12-18T04:15:25;4.30;;;3.90;;
15383;SDS011;7790;53.022;12.968;2022-12-18T04:19:26;4.47;;;4.07;;
15383;SDS011;7790;53.022;12.968;2022-12-18T04:23:28;4.50;;;4.10;;
15383;SDS011;7790;53.022;12.968;2022-12-18T04:27:32;3.93;;;3.63;;
15383;SDS011;7790;53.022;12.968;2022-12-18T04:31:34;4.73;;;4.33;;
15383;SDS011;7790;53.022;12.968;2022-12-18T04:35:36;4.23;;;3.83;;
15383;SDS011;7790;53.022;12.968;2022-12-18T04:39:38;5.00;;;3.60;;
15383;SDS011;7790;53.022;12.968;2022-12-18T04:43:45;4.07;;;3.77;;
15383;SDS011;7790;53.022;12.968;2022-12-18T04:47:47;4.10;;;3.70;;
15383;SDS011;7790;53.022;12.968;2022-12-18T04:51:48;4.33;;;3.93;;
15383;SDS011;7790;53.022;12.968;2022-12-18T04:55:49;4.90;;;3.60;;
15383;SDS011;7790;53.022;12.968;2022-12-18T04:59:51;4.23;;;3.83;;
15383;SDS011;7790;53.022;12.968;2022-12-18T05:03:52;4.07;;;3.70;;
15383;SDS011;7790;53.022;12.968;2022-12-18T05:07:53;4.10;;;3.80;;
15383;SDS011;7790;53.022;12.968;2022-12-18T05:11:55;4.50;;;4.10;;
15383;SDS011;7790;53.022;12.968;2022-12-18T05:15:56;4.13;;;3.73;;
15383;SDS011;7790;53.022;12.968;2022-12-18T05:19:58;4.93;;;4.20;;
15383;SDS011;7790;53.022;12.968;2022-12-18T05:23:59;4.40;;;4.00;;
15383;SDS011;7790;53.022;12.968;2022-12-18T05:28:00;4.60;;;3.93;;
15383;SDS011;7790;53.022;12.968;2022-12-18T05:32:01;4.63;;;4.20;;
15383;SDS011;7790;53.022;12.968;2022-12-18T05:36:06;4.57;;;4.00;;
15383;SDS011;7790;53.022;12.968;2022-12-18T05:40:08;5.57;;;3.70;;
15383;SDS011;7790;53.022;12.968;2022-12-18T05:44:10;4.07;;;3.67;;
15383;SDS011;7790;53.022;12.968;2022-12-18T05:48:11;4.50;;;4.10;;
15383;SDS011;7790;53.022;12.968;2022-12-18T05:52:12;5.83;;;4.17;;
15383;SDS011;7790;53.022;12.968;2022-12-18T05:56:15;4.30;;;3.90;;
15383;SDS011;7790;53.022;12.968;2022-12-18T06:00:17;4.90;;;4.40;;
15383;SDS011;7790;53.022;12.968;2022-12-18T06:04:18;4.43;;;4.03;;
15383;SDS011;7790;53.022;12.968;2022-12-18T06:08:19;4.37;;;3.97;;
15383;SDS011;7790;53.022;12.968;2022-12-18T06:12:21;5.00;;;4.30;;
15383;SDS011;7790;53.022;12.968;2022-12-18T06:16:22;4.90;;;4.40;;
15383;SDS011;7790;53.022;12.968;2022-12-18T06:20:23;4.77;;;4.37;;
15383;SDS011;7790;53.022;12.968;2022-12-18T06:24:24;5.10;;;4.60;;
15383;SDS011;7790;53.022;12.968;2022-12-18T06:28:26;5.03;;;4.50;;
15383;SDS011;7790;53.022;12.968;2022-12-18T06:32:27;4.67;;;4.20;;
15383;SDS011;7790;53.022;12.968;2022-12-18T06:36:28;5.10;;;4.60;;
15383;SDS011;7790;53.022;12.968;2022-12-18T06:40:30;5.97;;;4.60;;
15383;SDS011;7790;53.022;12.968;2022-12-18T06:44:31;6.57;;;4.73;;
15383;SDS011;7790;53.022;12.968;2022-12-18T06:48:32;5.23;;;4.73;;
15383;SDS011;7790;53.022;12.968;2022-12-18T06:52:34;5.03;;;4.53;;
15383;SDS011;7790;53.022;12.968;2022-12-18T06:56:35;5.13;;;4.70;;
15383;SDS011;7790;53.022;12.968;2022-12-18T07:00:36;5.20;;;4.70;;
15383;SDS011;7790;53.022;12.968;2022-12-18T07:04:38;5.30;;;4.80;;
15383;SDS011;7790;53.022;12.968;2022-12-18T07:08:39;4.70;;;4.30;;
15383;SDS011;7790;53.022;12.968;2022-12-18T07:12:40;5.07;;;4.57;;
15383;SDS011;7790;53.022;12.968;2022-12-18T07:16:41;4.77;;;4.27;;
15383;SDS011;7790;53.022;12.968;2022-12-18T07:20:43;6.80;;;4.60;;
15383;SDS011;7790;53.022;12.968;2022-12-18T07:24:44;5.17;;;4.63;;
15383;SDS011;7790;53.022;12.968;2022-12-18T07:28:45;6.07;;;5.10;;
15383;SDS011;7790;53.022;12.968;2022-12-18T07:32:47;5.17;;;4.67;;
15383;SDS011;7790;53.022;12.968;2022-12-18T07:36:48;5.60;;;4.73;;
15383;SDS011;7790;53.022;12.968;2022-12-18T07:40:50;5.30;;;4.80;;
15383;SDS011;7790;53.022;12.968;2022-12-18T07:44:51;5.57;;;5.00;;
15383;SDS011;7790;53.022;12.968;2022-12-18T07:48:52;5.90;;;4.90;;
15383;SDS011;7790;53.022;12.968;2022-12-18T07:52:53;6.33;;;5.47;;
15383;SDS011;7790;53.022;12.968;2022-12-18T07:56:55;5.93;;;5.03;;
15383;SDS011;7790;53.022;12.968;2022-12-18T08:01:06;8.40;;;5.10;;
15383;SDS011;7790;53.022;12.968;2022-12-18T08:05:08;6.10;;;4.67;;
15383;SDS011;7790;53.022;12.968;2022-12-18T08:09:09;5.50;;;4.87;;
15383;SDS011;7790;53.022;12.968;2022-12-18T08:13:11;7.23;;;5.67;;
15383;SDS011;7790;53.022;12.968;2022-12-18T08:17:12;7.93;;;5.93;;
15383;SDS011;7790;53.022;12.968;2022-12-18T08:21:15;8.13;;;5.50;;
15383;SDS011;7790;53.022;12.968;2022-12-18T08:25:17;5.20;;;4.70;;
15383;SDS011;7790;53.022;12.968;2022-12-18T08:29:18;6.90;;;5.30;;
15383;SDS011;7790;53.022;12.968;2022-12-18T08:33:20;7.80;;;5.20;;
15383;SDS011;7790;53.022;12.968;2022-12-18T08:37:21;6.93;;;5.53;;
15383;SDS011;7790;53.022;12.968;2022-12-18T08:41:22;5.93;;;5.23;;
15383;SDS011;7790;53.022;12.968;2022-12-18T08:45:24;7.00;;;5.23;;
15383;SDS011;7790;53.022;12.968;2022-12-18T08:49:26;7.30;;;5.00;;
15383;SDS011;7790;53.022;12.968;2022-12-18T08:53:27;6.70;;;5.13;;
15383;SDS011;7790;53.022;12.968;2022-12-18T08:57:29;6.37;;;5.30;;
15383;SDS011;7790;53.022;12.968;2022-12-18T09:01:30;6.20;;;5.57;;
15383;SDS011;7790;53.022;12.968;2022-12-18T09:05:31;6.03;;;5.40;;
15383;SDS011;7790;53.022;12.968;2022-12-18T09:09:32;5.40;;;4.90;;
15383;SDS011;7790;53.022;12.968;2022-12-18T09:13:34;5.87;;;5.27;;
15383;SDS011;7790;53.022;12.968;2022-12-18T09:17:35;5.93;;;5.33;;
15383;SDS011;7790;53.022;12.968;2022-12-18T09:21:37;6.73;;;4.80;;
15383;SDS011;7790;53.022;12.968;2022-12-18T09:25:39;6.43;;;5.30;;
15383;SDS011;7790;53.022;12.968;2022-12-18T09:29:40;6.17;;;5.57;;
15383;SDS011;7790;53.022;12.968;2022-12-18T09:33:42;5.57;;;5.07;;
15383;SDS011;7790;53.022;12.968;2022-12-18T09:37:45;6.13;;;5.53;;
15383;SDS011;7790;53.022;12.968;2022-12-18T09:41:53;6.13;;;5.40;;
15383;SDS011;7790;53.022;12.968;2022-12-18T09:46:00;5.60;;;5.10;;
15383;SDS011;7790;53.022;12.968;2022-12-18T09:50:04;6.87;;;5.40;;
15383;SDS011;7790;53.022;12.968;2022-12-18T09:54:14;6.70;;;5.90;;
15383;SDS011;7790;53.022;12.968;2022-12-18T10:02:19;6.57;;;5.50;;
15383;SDS011;7790;53.022;12.968;2022-12-18T10:23:08;6.30;;;5.70;;
15383;SDS011;7790;53.022;12.968;2022-12-18T10:27:17;6.23;;;5.47;;
15383;SDS011;7790;53.022;12.968;2022-12-18T10:31:20;6.30;;;5.70;;
15383;SDS011;7790;53.022;12.968;2022-12-18T10:35:22;6.80;;;5.93;;
15383;SDS011;7790;53.022;12.968;2022-12-18T10:39:24;6.53;;;5.93;;
15383;SDS011;7790;53.022;12.968;2022-12-18T10:43:30;6.33;;;5.67;;
15383;SDS011;7790;53.022;12.968;2022-12-18T10:47:31;6.63;;;6.00;;
15383;SDS011;7790;53.022;12.968;2022-12-18T10:51:35;6.90;;;6.20;;
15383;SDS011;7790;53.022;12.968;2022-12-18T10:55:38;7.70;;;6.43;;
15383;SDS011;7790;53.022;12.968;2022-12-18T10:59:51;8.40;;;6.50;;
15383;SDS011;7790;53.022;12.968;2022-12-18T11:07:54;6.70;;;6.10;;
15383;SDS011;7790;53.022;12.968;2022-12-18T11:11:56;7.53;;;6.73;;
15383;SDS011;7790;53.022;12.968;2022-12-18T11:15:59;13.53;;;10.47;;
15383;SDS011;7790;53.022;12.968;2022-12-18T11:20:01;17.10;;;12.43;;
15383;SDS011;7790;53.022;12.968;2022-12-18T11:24:03;32.40;;;21.20;;
15383;SDS011;7790;53.022;12.968;2022-12-18T11:36:28;31.37;;;22.03;;
15383;SDS011;7790;53.022;12.968;2022-12-18T11:40:33;33.53;;;21.63;;
15383;SDS011;7790;53.022;12.968;2022-12-18T11:44:38;30.80;;;21.53;;
15383;SDS011;7790;53.022;12.968;2022-12-18T11:49:18;32.50;;;20.97;;
15383;SDS011;7790;53.022;12.968;2022-12-18T11:53:10;33.27;;;20.57;;
15383;SDS011;7790;53.022;12.968;2022-12-18T12:05:55;27.33;;;18.83;;
15383;SDS011;7790;53.022;12.968;2022-12-18T12:22:48;22.10;;;15.40;;
15383;SDS011;7790;53.022;12.968;2022-12-18T12:26:48;23.50;;;15.97;;
15383;SDS011;7790;53.022;12.968;2022-12-18T12:30:56;20.17;;;14.00;;
15383;SDS011;7790;53.022;12.968;2022-12-18T12:35:22;20.03;;;14.57;;
15383;SDS011;7790;53.022;12.968;2022-12-18T12:39:29;19.63;;;14.20;;
15383;SDS011;7790;53.022;12.968;2022-12-18T12:47:42;19.73;;;13.43;;
15383;SDS011;7790;53.022;12.968;2022-12-18T12:52:04;19.57;;;13.57;;
15383;SDS011;7790;53.022;12.968;2022-12-18T12:56:06;24.77;;;12.97;;
15383;SDS011;7790;53.022;12.968;2022-12-18T13:08:26;15.00;;;12.00;;
15383;SDS011;7790;53.022;12.968;2022-12-18T13:12:27;17.63;;;11.73;;
15383;SDS011;7790;53.022;12.968;2022-12-18T13:16:47;12.70;;;10.40;;
15383;SDS011;7790;53.022;12.968;2022-12-18T13:20:50;14.37;;;11.30;;
15383;SDS011;7790;53.022;12.968;2022-12-18T13:24:51;14.93;;;10.93;;
15383;SDS011;7790;53.022;12.968;2022-12-18T13:28:54;12.33;;;10.27;;
15383;SDS011;7790;53.022;12.968;2022-12-18T13:33:34;13.03;;;10.10;;
15383;SDS011;7790;53.022;12.968;2022-12-18T13:41:32;10.00;;;8.80;;
15383;SDS011;7790;53.022;12.968;2022-12-18T13:49:47;30.00;;;23.23;;
15383;SDS011;7790;53.022;12.968;2022-12-18T13:54:17;22.20;;;18.40;;
15383;SDS011;7790;53.022;12.968;2022-12-18T13:58:11;19.73;;;15.53;;
15383;SDS011;7790;53.022;12.968;2022-12-18T14:02:14;19.80;;;15.33;;
15383;SDS011;7790;53.022;12.968;2022-12-18T14:06:16;14.00;;;12.33;;
15383;SDS011;7790;53.022;12.968;2022-12-18T14:10:18;14.53;;;12.00;;
15383;SDS011;7790;53.022;12.968;2022-12-18T14:14:19;11.27;;;10.07;;
15383;SDS011;7790;53.022;12.968;2022-12-18T14:22:25;11.10;;;9.20;;
15383;SDS011;7790;53.022;12.968;2022-12-18T14:26:30;10.13;;;9.13;;
15383;SDS011;7790;53.022;12.968;2022-12-18T14:34:34;11.10;;;8.60;;
15383;SDS011;7790;53.022;12.968;2022-12-18T14:38:36;18.53;;;8.43;;
15383;SDS011;7790;53.022;12.968;2022-12-18T14:42:38;20.47;;;8.17;;
15383;SDS011;7790;53.022;12.968;2022-12-18T14:46:39;13.93;;;8.43;;
15383;SDS011;7790;53.022;12.968;2022-12-18T14:50:42;11.57;;;7.57;;
15383;SDS011;7790;53.022;12.968;2022-12-18T14:54:45;8.77;;;7.43;;
15383;SDS011;7790;53.022;12.968;2022-12-18T14:58:50;12.07;;;7.83;;
15383;SDS011;7790;53.022;12.968;2022-12-18T15:02:53;14.13;;;7.30;;
15383;SDS011;7790;53.022;12.968;2022-12-18T15:07:05;10.00;;;7.07;;
15383;SDS011;7790;53.022;12.968;2022-12-18T15:19:37;10.77;;;6.40;;
15383;SDS011;7790;53.022;12.968;2022-12-18T15:27:49;8.07;;;6.33;;
15383;SDS011;7790;53.022;12.968;2022-12-18T15:31:58;6.57;;;5.93;;
15383;SDS011;7790;53.022;12.968;2022-12-18T15:36:00;10.63;;;6.63;;
15383;SDS011;7790;53.022;12.968;2022-12-18T15:40:02;9.03;;;6.93;;
15383;SDS011;7790;53.022;12.968;2022-12-18T15:44:17;7.60;;;6.80;;
15383;SDS011;7790;53.022;12.968;2022-12-18T15:48:22;7.37;;;6.57;;
15383;SDS011;7790;53.022;12.968;2022-12-18T15:52:23;7.23;;;6.47;;
15383;SDS011;7790;53.022;12.968;2022-12-18T15:56:26;8.80;;;6.30;;
15383;SDS011;7790;53.022;12.968;2022-12-18T16:00:45;6.43;;;5.83;;
15383;SDS011;7790;53.022;12.968;2022-12-18T16:04:47;6.67;;;5.73;;
15383;SDS011;7790;53.022;12.968;2022-12-18T16:08:48;6.47;;;5.87;;
15383;SDS011;7790;53.022;12.968;2022-12-18T16:12:49;6.37;;;5.60;;
15383;SDS011;7790;53.022;12.968;2022-12-18T16:16:53;5.50;;;5.00;;
15383;SDS011;7790;53.022;12.968;2022-12-18T16:20:54;5.67;;;5.13;;
15383;SDS011;7790;53.022;12.968;2022-12-18T16:24:56;5.27;;;4.77;;
15383;SDS011;7790;53.022;12.968;2022-12-18T16:28:58;5.83;;;5.33;;
15383;SDS011;7790;53.022;12.968;2022-12-18T16:32:59;5.30;;;4.80;;
15383;SDS011;7790;53.022;12.968;2022-12-18T16:37:02;7.23;;;5.40;;
15383;SDS011;7790;53.022;12.968;2022-12-18T16:41:06;7.63;;;5.50;;
15383;SDS011;7790;53.022;12.968;2022-12-18T16:45:32;7.27;;;5.50;;
15383;SDS011;7790;53.022;12.968;2022-12-18T16:49:33;9.27;;;5.90;;
15383;SDS011;7790;53.022;12.968;2022-12-18T16:53:34;6.63;;;5.50;;
15383;SDS011;7790;53.022;12.968;2022-12-18T16:57:35;6.10;;;5.50;;
15383;SDS011;7790;53.022;12.968;2022-12-18T17:01:37;6.37;;;5.57;;
15383;SDS011;7790;53.022;12.968;2022-12-18T17:05:40;6.57;;;5.83;;
15383;SDS011;7790;53.022;12.968;2022-12-18T17:09:43;8.20;;;6.30;;
15383;SDS011;7790;53.022;12.968;2022-12-18T17:13:44;6.63;;;5.93;;
15383;SDS011;7790;53.022;12.968;2022-12-18T17:17:45;6.13;;;5.53;;
15383;SDS011;7790;53.022;12.968;2022-12-18T17:21:47;7.53;;;6.10;;
15383;SDS011;7790;53.022;12.968;2022-12-18T17:25:49;8.27;;;5.83;;
15383;SDS011;7790;53.022;12.968;2022-12-18T17:29:54;8.17;;;6.53;;
15383;SDS011;7790;53.022;12.968;2022-12-18T17:33:55;12.00;;;7.37;;
15383;SDS011;7790;53.022;12.968;2022-12-18T17:37:57;11.13;;;7.67;;
15383;SDS011;7790;53.022;12.968;2022-12-18T17:41:58;12.73;;;9.50;;
15383;SDS011;7790;53.022;12.968;2022-12-18T17:46:03;20.47;;;14.57;;
15383;SDS011;7790;53.022;12.968;2022-12-18T17:50:05;33.70;;;17.90;;
15383;SDS011;7790;53.022;12.968;2022-12-18T17:54:06;31.43;;;17.67;;
15383;SDS011;7790;53.022;12.968;2022-12-18T17:58:08;28.50;;;18.97;;
15383;SDS011;7790;53.022;12.968;2022-12-18T18:02:10;26.03;;;18.77;;
15383;SDS011;7790;53.022;12.968;2022-12-18T18:06:11;25.47;;;16.50;;
15383;SDS011;7790;53.022;12.968;2022-12-18T18:10:13;25.40;;;16.23;;
15383;SDS011;7790;53.022;12.968;2022-12-18T18:14:17;23.40;;;14.70;;
15383;SDS011;7790;53.022;12.968;2022-12-18T18:18:18;20.57;;;13.23;;
15383;SDS011;7790;53.022;12.968;2022-12-18T18:22:20;22.60;;;13.37;;
15383;SDS011;7790;53.022;12.968;2022-12-18T18:26:21;17.70;;;11.93;;
15383;SDS011;7790;53.022;12.968;2022-12-18T18:30:23;17.67;;;12.53;;
15383;SDS011;7790;53.022;12.968;2022-12-18T18:34:29;16.07;;;11.60;;
15383;SDS011;7790;53.022;12.968;2022-12-18T18:38:31;13.93;;;10.80;;
15383;SDS011;7790;53.022;12.968;2022-12-18T18:42:32;13.33;;;10.70;;
15383;SDS011;7790;53.022;12.968;2022-12-18T18:46:34;12.27;;;10.20;;
15383;SDS011;7790;53.022;12.968;2022-12-18T18:50:35;12.67;;;10.83;;
15383;SDS011;7790;53.022;12.968;2022-12-18T18:54:37;14.30;;;9.57;;
15383;SDS011;7790;53.022;12.968;2022-12-18T18:58:38;13.03;;;9.77;;
15383;SDS011;7790;53.022;12.968;2022-12-18T19:02:39;10.53;;;8.50;;
15383;SDS011;7790;53.022;12.968;2022-12-18T19:06:41;10.93;;;8.77;;
15383;SDS011;7790;53.022;12.968;2022-12-18T19:10:43;11.17;;;8.77;;
15383;SDS011;7790;53.022;12.968;2022-12-18T19:14:44;10.07;;;9.00;;
15383;SDS011;7790;53.022;12.968;2022-12-18T19:18:45;12.17;;;8.60;;
15383;SDS011;7790;53.022;12.968;2022-12-18T19:22:47;9.43;;;8.43;;
15383;SDS011;7790;53.022;12.968;2022-12-18T19:26:48;9.33;;;8.17;;
15383;SDS011;7790;53.022;12.968;2022-12-18T19:30:51;9.33;;;8.17;;
15383;SDS011;7790;53.022;12.968;2022-12-18T19:34:54;8.30;;;7.50;;
15383;SDS011;7790;53.022;12.968;2022-12-18T19:38:57;9.50;;;7.93;;
15383;SDS011;7790;53.022;12.968;2022-12-18T19:42:59;9.97;;;7.80;;
15383;SDS011;7790;53.022;12.968;2022-12-18T19:47:01;8.30;;;7.40;;
15383;SDS011;7790;53.022;12.968;2022-12-18T19:51:24;9.33;;;7.77;;
15383;SDS011;7790;53.022;12.968;2022-12-18T19:55:24;9.90;;;8.20;;
15383;SDS011;7790;53.022;12.968;2022-12-18T19:59:25;7.67;;;6.97;;
15383;SDS011;7790;53.022;12.968;2022-12-18T20:03:27;8.57;;;7.77;;
15383;SDS011;7790;53.022;12.968;2022-12-18T20:07:28;11.73;;;7.97;;
15383;SDS011;7790;53.022;12.968;2022-12-18T20:11:30;8.03;;;7.30;;
15383;SDS011;7790;53.022;12.968;2022-12-18T20:15:32;8.50;;;7.60;;
15383;SDS011;7790;53.022;12.968;2022-12-18T20:19:33;8.63;;;7.70;;
15383;SDS011;7790;53.022;12.968;2022-12-18T20:23:34;11.23;;;8.00;;
15383;SDS011;7790;53.022;12.968;2022-12-18T20:27:36;11.40;;;7.40;;
15383;SDS011;7790;53.022;12.968;2022-12-18T20:31:37;10.37;;;7.90;;
15383;SDS011;7790;53.022;12.968;2022-12-18T20:35:39;8.27;;;7.50;;
15383;SDS011;7790;53.022;12.968;2022-12-18T20:39:40;8.70;;;7.80;;
15383;SDS011;7790;53.022;12.968;2022-12-18T20:43:41;8.90;;;7.30;;
15383;SDS011;7790;53.022;12.968;2022-12-18T20:47:43;8.07;;;7.37;;
15383;SDS011;7790;53.022;12.968;2022-12-18T20:51:45;10.03;;;7.77;;
15383;SDS011;7790;53.022;12.968;2022-12-18T20:55:49;8.77;;;7.87;;
15383;SDS011;7790;53.022;12.968;2022-12-18T20:59:50;9.50;;;8.10;;
15383;SDS011;7790;53.022;12.968;2022-12-18T21:03:52;9.43;;;8.50;;
15383;SDS011;7790;53.022;12.968;2022-12-18T21:07:53;8.83;;;7.93;;
15383;SDS011;7790;53.022;12.968;2022-12-18T21:11:55;9.67;;;8.70;;
15383;SDS011;7790;53.022;12.968;2022-12-18T21:16:15;9.13;;;8.23;;
15383;SDS011;7790;53.022;12.968;2022-12-18T21:20:16;8.70;;;7.77;;
15383;SDS011;7790;53.022;12.968;2022-12-18T21:24:18;9.03;;;8.13;;
15383;SDS011;7790;53.022;12.968;2022-12-18T21:28:19;8.93;;;8.03;;
15383;SDS011;7790;53.022;12.968;2022-12-18T21:32:20;9.40;;;8.40;;
15383;SDS011;7790;53.022;12.968;2022-12-18T21:36:22;9.27;;;8.30;;
15383;SDS011;7790;53.022;12.968;2022-12-18T21:40:23;8.87;;;7.97;;
15383;SDS011;7790;53.022;12.968;2022-12-18T21:44:24;9.13;;;8.23;;
15383;SDS011;7790;53.022;12.968;2022-12-18T21:48:26;9.20;;;8.30;;
15383;SDS011;7790;53.022;12.968;2022-12-18T21:52:27;9.80;;;8.90;;
15383;SDS011;7790;53.022;12.968;2022-12-18T22:01:10;9.70;;;8.80;;
15383;SDS011;7790;53.022;12.968;2022-12-18T22:05:11;9.63;;;8.63;;
15383;SDS011;7790;53.022;12.968;2022-12-18T22:09:13;9.37;;;8.40;;
15383;SDS011;7790;53.022;12.968;2022-12-18T22:13:15;8.73;;;7.93;;
15383;SDS011;7790;53.022;12.968;2022-12-18T22:17:16;9.60;;;8.70;;
15383;SDS011;7790;53.022;12.968;2022-12-18T22:21:27;10.53;;;9.53;;
15383;SDS011;7790;53.022;12.968;2022-12-18T22:25:29;13.13;;;10.03;;
15383;SDS011;7790;53.022;12.968;2022-12-18T22:29:30;21.00;;;14.87;;
15383;SDS011;7790;53.022;12.968;2022-12-18T22:33:50;31.57;;;17.70;;
15383;SDS011;7790;53.022;12.968;2022-12-18T22:37:51;28.47;;;16.83;;
15383;SDS011;7790;53.022;12.968;2022-12-18T22:41:53;25.47;;;16.67;;
15383;SDS011;7790;53.022;12.968;2022-12-18T22:45:54;24.40;;;16.13;;
15383;SDS011;7790;53.022;12.968;2022-12-18T22:49:56;29.17;;;17.00;;
15383;SDS011;7790;53.022;12.968;2022-12-18T22:53:57;23.30;;;15.23;;
15383;SDS011;7790;53.022;12.968;2022-12-18T22:57:58;21.03;;;15.13;;
15383;SDS011;7790;53.022;12.968;2022-12-18T23:01:59;18.47;;;14.23;;
15383;SDS011;7790;53.022;12.968;2022-12-18T23:06:02;20.97;;;14.43;;
15383;SDS011;7790;53.022;12.968;2022-12-18T23:10:03;19.70;;;13.87;;
15383;SDS011;7790;53.022;12.968;2022-12-18T23:14:05;19.17;;;12.70;;
15383;SDS011;7790;53.022;12.968;2022-12-18T23:18:06;18.10;;;13.03;;
15383;SDS011;7790;53.022;12.968;2022-12-18T23:22:08;17.37;;;12.40;;
15383;SDS011;7790;53.022;12.968;2022-12-18T23:26:10;15.83;;;11.60;;
15383;SDS011;7790;53.022;12.968;2022-12-18T23:30:11;16.67;;;12.33;;
15383;SDS011;7790;53.022;12.968;2022-12-18T23:34:14;13.90;;;11.67;;
15383;SDS011;7790;53.022;12.968;2022-12-18T23:38:17;14.10;;;11.17;;
15383;SDS011;7790;53.022;12.968;2022-12-18T23:42:18;14.27;;;10.87;;
15383;SDS011;7790;53.022;12.968;2022-12-18T23:46:24;13.87;;;11.17;;
15383;SDS011;7790;53.022;12.968;2022-12-18T23:50:26;14.50;;;11.50;;
15383;SDS011;7790;53.022;12.968;2022-12-18T23:54:27;12.90;;;10.67;;
15383;SDS011;7790;53.022;12.968;2022-12-18T23:58:29;14.17;;;10.67;;
